Terminal Aerodrome Forecast
Issued by NWS

Home | Current Version | Previous Version | Text Only | Print | Product List | Glossary On
Versions: 1 2 3 4 5 6 7 8 9 10 11 12 13 14 15 16 17 18
000
FTUS43 KEAX 211700
TAFSTJ
TAF
KSTJ 211724Z 2118/2218 15003KT P6SM SKC
     FM221000 12004KT P6SM VCSH BKN050
     FM221600 14007KT P6SM SCT050=

USA.gov is the U.S. government's official web portal to all federal, state and local government web resources and services.